KLFK/LFK METAR and TAF weather

Enter ICAO airport designator
Station Type Date Time Source
KLFK METAR 2022/06/29 00:53 UTC NOAA

KLFK 290053Z AUTO 01007KT 10SM CLR 32/11 A3005 RMK AO2 SLP170 T03220111


Station Type Date Time Source
KLFK Decoded METAR 2022/06/29 00:53 UTC NOAA

LUFKIN ANGELINA COUNTY AIRPORT , TX, United States (KLFK) 31-14N 94-45W 88M
Jun 28, 2022 - 08:53 PM EDT / 2022.06.29 0053 UTC
Wind: from the N (010 degrees) at 8 MPH (7 KT):0
Visibility: 10 mile(s):0
Sky conditions: clear
Temperature: 90.0 F (32.2 C)
Dew Point: 52.0 F (11.1 C)
Relative Humidity: 27%
Pressure (altimeter): 30.05 in. Hg (1017 hPa)
ob: KLFK 290053Z AUTO 01007KT 10SM CLR 32/11 A3005 RMK AO2 SLP170 T03220111
cycle: 1

Station Type Date Time Source
KLFK TAF 2022/06/29 01:58 UTC NOAA

TAF
AMD KLFK 290057Z 2901/2924 VRB03KT P6SM SCT050 SCT250
FM290900 VRB03KT P6SM SCT060 SCT120 SCT250
FM291600 10010KT P6SM BKN120 BKN250

Example: see airport list